Time;durP1;ratioP1;P1;durP2;ratioP2;P2;SDS_P1;SDS_P2;PMS_P1;PMS_P2;Temp;Humidity;BMP_temperature;BMP_pressure;BME280_temperature;BME280_humidity;BME280_pressure;Samples;Min_cycle;Max_cycle;Signal;HPM_P1;HPM_P2
2021/07/07 00:01:25;;;;;;;2.33;1.60;;;22.70;99.90;;;22.20;77.58;100277.16;5006394;28;20735;-54
2021/07/07 00:03:50;;;;;;;4.53;1.90;;;22.70;99.90;;;22.10;78.01;100275.84;5005983;28;20030;-53
2021/07/07 00:06:16;;;;;;;2.58;1.70;;;22.60;99.90;;;22.09;77.96;100274.22;5007576;28;20060;-52
2021/07/07 00:08:42;;;;;;;3.28;2.03;;;22.60;99.90;;;22.14;77.52;100274.38;5006649;28;20048;-51
2021/07/07 00:11:08;;;;;;;1.88;1.35;;;22.60;99.90;;;22.12;78.14;100275.63;5007726;28;20034;-53
2021/07/07 00:13:34;;;;;;;2.67;1.38;;;22.60;99.90;;;22.06;78.38;100271.22;5006312;28;20390;-55
2021/07/07 00:16:00;;;;;;;4.05;2.17;;;22.60;99.90;;;22.00;79.26;100264.94;5005883;28;20042;-55
2021/07/07 00:18:26;;;;;;;3.22;2.80;;;22.60;99.90;;;22.08;78.77;100269.97;5007878;28;20070;-56
2021/07/07 00:20:55;;;;;;;5.75;2.92;;;22.60;99.90;;;22.07;79.08;100265.69;5004718;28;20103;-56
2021/07/07 00:23:30;;;;;;;8.23;3.15;;;22.60;99.90;;;21.89;80.21;100270.97;5007812;28;20506;-51
2021/07/07 00:25:57;;;;;;;4.00;2.47;;;22.50;99.90;;;21.82;79.97;100267.59;5006750;28;20037;-55
2021/07/07 00:28:24;;;;;;;9.50;2.88;;;22.40;99.90;;;21.86;79.60;100274.06;5006272;28;20455;-56
2021/07/07 00:30:52;;;;;;;4.32;2.30;;;22.40;99.90;;;21.92;79.42;100275.03;5005837;28;20146;-52
2021/07/07 00:33:19;;;;;;;3.88;2.53;;;22.40;99.90;;;21.93;78.95;100269.50;5007825;28;20115;-54
2021/07/07 00:35:46;;;;;;;3.45;2.20;;;22.40;99.90;;;21.97;78.83;100270.69;5006588;28;20506;-54
2021/07/07 00:38:13;;;;;;;6.93;1.98;;;22.40;99.90;;;21.96;79.31;100273.56;5006976;28;20042;-53
2021/07/07 00:40:41;;;;;;;3.65;1.85;;;22.40;99.90;;;21.96;79.33;100269.06;5004444;28;20549;-54
2021/07/07 00:43:07;;;;;;;2.10;1.70;;;22.40;99.90;;;21.99;78.65;100267.81;5001655;28;20042;-55
2021/07/07 00:45:34;;;;;;;1.33;1.10;;;22.50;99.90;;;21.95;78.11;100272.75;5005682;28;20053;-56
2021/07/07 00:48:00;;;;;;;4.82;1.40;;;22.40;99.90;;;21.92;78.01;100280.34;5007526;28;20033;-53
2021/07/07 00:50:26;;;;;;;2.55;1.38;;;22.40;99.90;;;21.87;78.19;100281.00;5003952;28;20083;-54
2021/07/07 00:52:56;;;;;;;3.22;1.67;;;22.40;99.90;;;21.83;78.78;100280.63;5007766;28;20088;-53
2021/07/07 00:55:23;;;;;;;1.75;1.52;;;22.30;99.90;;;21.84;78.70;100286.75;5005240;28;20073;-51
2021/07/07 00:57:50;;;;;;;3.65;1.58;;;22.30;99.90;;;21.84;78.58;100276.94;5007489;28;20124;-56
2021/07/07 01:00:23;;;;;;;4.07;1.38;;;22.30;99.90;;;21.84;78.85;100276.13;5010701;28;20037;-57
2021/07/07 01:02:53;;;;;;;2.40;1.33;;;22.40;99.90;;;21.80;78.45;100275.78;5012155;28;20045;-53
2021/07/07 01:05:19;;;;;;;4.32;1.00;;;22.30;99.90;;;21.80;78.04;100275.78;5006908;28;20085;-51
2021/07/07 01:07:46;;;;;;;1.33;0.85;;;22.30;99.90;;;21.77;77.08;100286.00;5014033;28;20385;-55
2021/07/07 01:10:15;;;;;;;4.50;1.25;;;22.30;99.90;;;21.74;76.92;100287.25;5011687;28;20113;-56
2021/07/07 01:12:42;;;;;;;4.32;1.63;;;22.20;99.90;;;21.74;77.35;100281.19;5012632;28;20040;-57
2021/07/07 01:15:19;;;;;;;4.70;3.13;;;22.20;99.90;;;21.68;80.23;100277.56;5011263;28;20050;-52
2021/07/07 01:17:47;;;;;;;4.45;2.80;;;22.20;99.90;;;21.62;79.81;100280.28;4992046;28;20038;-54
2021/07/07 01:20:25;;;;;;;4.95;2.22;;;22.10;99.90;;;21.49;81.72;100282.06;5006069;28;20037;-55
2021/07/07 01:22:52;;;;;;;6.60;2.50;;;22.10;99.90;;;21.42;81.53;100283.94;5013905;28;20236;-59
2021/07/07 01:25:19;;;;;;;6.22;1.80;;;22.00;99.90;;;21.34;81.91;100288.72;5012310;28;20466;-55
2021/07/07 01:28:07;;;;;;;3.15;2.35;;;21.90;99.90;;;21.23;84.12;100284.16;5013419;28;20038;-56
2021/07/07 01:30:34;;;;;;;6.63;2.30;;;21.80;99.90;;;21.13;83.96;100293.38;5010379;28;20116;-55
2021/07/07 01:33:00;;;;;;;6.28;2.53;;;21.70;99.90;;;21.08;83.89;100282.63;5013859;28;20030;-53
2021/07/07 01:35:26;;;;;;;6.38;2.38;;;21.60;99.90;;;21.07;84.16;100281.00;5010701;28;20050;-57
2021/07/07 01:37:54;;;;;;;4.45;2.70;;;21.60;99.90;;;21.08;83.75;100284.47;5013812;28;20462;-59
2021/07/07 01:40:26;;;;;;;5.22;2.67;;;21.60;99.90;;;21.10;84.21;100282.41;5010966;28;20076;-57
2021/07/07 01:42:53;;;;;;;3.33;2.10;;;21.60;99.90;;;21.10;84.08;100285.06;5013140;28;20049;-56
2021/07/07 01:45:22;;;;;;;4.82;2.50;;;21.60;99.90;;;21.08;83.81;100281.81;5011182;28;20038;-53
2021/07/07 01:47:49;;;;;;;6.10;2.28;;;21.60;99.90;;;21.10;83.66;100280.56;5028102;28;20050;-52
2021/07/07 01:50:16;;;;;;;9.10;2.50;;;21.60;99.90;;;21.07;84.08;100281.00;5009916;28;20029;-57
2021/07/07 01:52:43;;;;;;;5.18;3.08;;;21.60;99.90;;;21.08;83.72;100281.81;5013509;28;20045;-58
2021/07/07 01:55:12;;;;;;;3.53;3.17;;;21.60;99.90;;;21.08;83.71;100276.53;5012663;28;20034;-57
2021/07/07 01:57:46;;;;;;;3.70;2.80;;;21.60;99.90;;;21.07;83.62;100278.38;5013188;28;20056;-56
2021/07/07 02:00:17;;;;;;;6.80;2.95;;;21.50;99.90;;;21.06;83.57;100275.94;5005490;28;20057;-57
2021/07/07 02:02:46;;;;;;;4.10;2.55;;;21.50;99.90;;;21.08;83.42;100274.69;5012433;28;20358;-55
2021/07/07 02:05:14;;;;;;;4.68;3.58;;;21.60;99.90;;;21.10;83.12;100274.47;5010499;28;20371;-49
2021/07/07 02:07:41;;;;;;;3.95;3.28;;;21.60;99.90;;;21.10;83.38;100271.81;5012732;28;20184;-59
2021/07/07 02:10:11;;;;;;;4.10;3.05;;;21.60;99.90;;;21.08;83.71;100269.38;5010965;28;20071;-55
2021/07/07 02:12:38;;;;;;;4.63;2.67;;;21.60;99.90;;;21.06;83.68;100274.09;5008563;28;20038;-51
2021/07/07 02:15:18;;;;;;;4.60;2.80;;;21.50;99.90;;;21.03;83.70;100273.72;5007790;28;20161;-58
2021/07/07 02:17:45;;;;;;;5.30;2.85;;;21.50;99.90;;;21.05;83.44;100266.34;5007277;28;20046;-57
2021/07/07 02:20:13;;;;;;;4.38;3.63;;;21.50;99.90;;;21.03;83.29;100261.28;5007851;28;20049;-56
2021/07/07 02:22:41;;;;;;;4.25;3.80;;;21.50;99.90;;;21.03;83.30;100269.22;5009236;28;20076;-57
2021/07/07 02:25:18;;;;;;;8.07;3.28;;;21.50;99.90;;;21.03;83.73;100268.41;5008371;28;20033;-54
2021/07/07 02:27:44;;;;;;;3.00;2.75;;;21.50;99.90;;;21.03;83.68;100273.72;5008797;28;20088;-59
2021/07/07 02:30:14;;;;;;;3.75;2.42;;;21.60;99.90;;;21.03;83.78;100274.53;5008713;28;20128;-54
2021/07/07 02:32:41;;;;;;;3.40;2.60;;;21.50;99.90;;;20.96;84.32;100278.25;5022247;28;20169;-53
2021/07/07 02:35:12;;;;;;;8.63;3.28;;;21.40;99.90;;;20.90;84.87;100281.75;5005551;28;20405;-57
2021/07/07 02:37:39;;;;;;;7.53;3.10;;;21.40;99.90;;;20.82;85.00;100281.00;5008205;28;20041;-56
2021/07/07 02:40:07;;;;;;;6.28;3.60;;;21.40;99.90;;;20.85;84.85;100282.41;5008352;28;20037;-57
2021/07/07 02:42:33;;;;;;;7.63;3.30;;;21.30;99.90;;;20.84;84.71;100283.44;5007706;28;20050;-59
2021/07/07 02:45:00;;;;;;;5.82;3.00;;;21.30;99.90;;;20.81;84.94;100281.22;5012009;28;20132;-54
2021/07/07 02:47:26;;;;;;;8.30;3.38;;;21.30;99.90;;;20.79;84.76;100299.19;5007538;28;20111;-55
2021/07/07 02:49:52;;;;;;;4.28;3.30;;;21.30;99.90;;;20.76;84.99;100294.31;5006445;28;20073;-55
2021/07/07 02:52:18;;;;;;;4.07;3.67;;;21.30;99.90;;;20.78;84.75;100298.38;5006764;28;20056;-54
2021/07/07 02:54:44;;;;;;;7.57;4.78;;;21.30;99.90;;;20.78;84.62;100290.44;5008537;28;20042;-51
2021/07/07 02:57:10;;;;;;;5.82;3.90;;;21.30;99.90;;;20.75;84.86;100290.84;5008186;28;20426;-56
2021/07/07 02:59:36;;;;;;;4.75;4.22;;;21.20;99.90;;;20.74;84.74;100291.88;5008308;28;20057;-58
2021/07/07 03:02:02;;;;;;;4.43;3.67;;;21.20;99.90;;;20.73;84.76;100295.56;5006322;28;20302;-51
2021/07/07 03:04:28;;;;;;;5.85;3.92;;;21.20;99.90;;;20.71;85.28;100291.50;5008821;28;20040;-56
2021/07/07 03:06:54;;;;;;;6.30;3.65;;;21.20;99.90;;;20.64;85.21;100286.25;5006223;28;20038;-57
2021/07/07 03:09:20;;;;;;;6.40;4.78;;;21.20;99.90;;;20.73;85.17;100290.25;5007960;28;20056;-58
2021/07/07 03:11:46;;;;;;;5.97;4.03;;;21.20;99.90;;;20.69;85.17;100294.34;5008256;28;20038;-51
2021/07/07 03:14:12;;;;;;;11.68;4.43;;;21.20;99.90;;;20.67;85.17;100293.75;5005186;28;20111;-57
2021/07/07 03:16:38;;;;;;;7.57;4.05;;;21.20;99.90;;;20.70;85.07;100285.41;5007083;28;20517;-51
2021/07/07 03:19:04;;;;;;;8.65;3.88;;;21.20;99.90;;;20.69;85.16;100282.97;5007084;28;20060;-57
2021/07/07 03:21:30;;;;;;;7.95;4.03;;;21.10;99.90;;;20.73;84.80;100281.50;5006164;28;20044;-55
2021/07/07 03:23:56;;;;;;;9.23;4.50;;;21.20;99.90;;;20.75;84.53;100284.75;5008012;28;20065;-56
2021/07/07 03:26:21;;;;;;;4.70;3.75;;;21.20;99.90;;;20.71;84.99;100291.50;5008007;28;20073;-58
2021/07/07 03:28:48;;;;;;;8.32;4.78;;;21.20;99.90;;;20.69;85.06;100294.34;5008197;28;20034;-55
2021/07/07 03:31:14;;;;;;;10.13;4.63;;;21.20;99.90;;;20.68;85.28;100292.75;5004001;28;20622;-56
2021/07/07 03:33:40;;;;;;;7.07;3.60;;;21.20;99.90;;;20.66;85.23;100284.19;5006633;28;20154;-55
2021/07/07 03:36:06;;;;;;;7.35;3.70;;;21.20;99.90;;;20.65;85.37;100289.72;5000895;28;20434;-52
2021/07/07 03:38:32;;;;;;;9.95;3.67;;;21.20;99.90;;;20.68;85.44;100278.69;5005816;28;20042;-55
2021/07/07 03:40:58;;;;;;;4.78;2.90;;;21.20;99.90;;;20.64;85.59;100288.91;5007833;28;20206;-56
2021/07/07 03:43:24;;;;;;;4.93;3.40;;;21.10;99.90;;;20.62;86.39;100283.00;5006408;28;20462;-58
2021/07/07 03:45:50;;;;;;;5.05;3.55;;;21.10;99.90;;;20.61;85.92;100291.16;5007489;28;20038;-51
2021/07/07 03:48:16;;;;;;;8.77;3.80;;;21.10;99.90;;;20.61;85.78;100289.31;5006854;28;20168;-57
2021/07/07 03:50:42;;;;;;;7.35;3.95;;;21.10;99.90;;;20.59;86.21;100293.22;4996881;28;20124;-54
2021/07/07 03:53:08;;;;;;;7.47;4.07;;;21.10;99.90;;;20.60;86.22;100298.28;5006622;28;20038;-53
2021/07/07 03:55:34;;;;;;;10.50;4.50;;;21.10;99.90;;;20.67;85.91;100291.13;5006513;28;20429;-57
2021/07/07 03:58:02;;;;;;;4.00;3.50;;;21.20;99.90;;;20.67;85.95;100293.75;5008521;28;20140;-57
2021/07/07 04:00:30;;;;;;;8.93;4.10;;;21.20;99.90;;;20.69;85.89;100294.34;5003762;28;20128;-57
2021/07/07 04:02:58;;;;;;;4.63;3.63;;;21.20;99.90;;;20.71;85.47;100294.97;5007919;28;20030;-55
2021/07/07 04:05:25;;;;;;;7.97;3.42;;;21.30;99.90;;;20.78;85.02;100297.56;5006960;28;20438;-55
2021/07/07 04:07:52;;;;;;;6.03;3.70;;;21.30;99.90;;;20.77;84.99;100288.00;5006911;28;20071;-57
2021/07/07 04:10:18;;;;;;;6.50;3.38;;;21.30;99.90;;;21.00;84.43;100288.19;5005919;28;20048;-58
2021/07/07 04:12:49;;;;;;;6.50;4.40;;;21.40;99.90;;;21.62;81.77;100293.53;5008468;28;20033;-56
2021/07/07 04:15:16;;;;;;;6.28;3.58;;;22.00;99.90;;;22.39;79.03;100294.63;5003801;28;20088;-56
2021/07/07 04:17:44;;;;;;;3.70;3.17;;;22.90;99.90;;;23.01;76.58;100303.13;5007061;28;20046;-56
2021/07/07 04:20:13;;;;;;;6.85;4.18;;;23.80;99.90;;;23.48;74.38;100303.91;5003984;28;20029;-53
2021/07/07 04:22:39;;;;;;;6.97;3.17;;;24.50;99.90;;;24.25;71.28;100290.31;5005880;28;20085;-56
2021/07/07 04:25:10;;;;;;;8.20;2.92;;;25.50;99.90;;;25.10;67.56;100290.16;5005192;28;20045;-60
2021/07/07 04:27:37;;;;;;;4.75;2.35;;;26.40;99.90;;;25.60;65.15;100291.91;5007734;28;20036;-53
2021/07/07 04:30:11;;;;;;;3.67;2.35;;;27.20;99.90;;;25.64;63.96;100296.53;5006180;28;20037;-54
2021/07/07 04:32:37;;;;;;;2.58;2.35;;;27.30;98.80;;;25.32;65.47;100293.69;5006397;28;20041;-57
2021/07/07 04:35:06;;;;;;;3.47;2.17;;;27.00;99.70;;;26.00;63.21;100302.28;5007350;28;20453;-54
2021/07/07 04:37:32;;;;;;;2.95;2.13;;;27.50;98.30;;;26.16;63.29;100297.94;5003005;28;20545;-56
2021/07/07 04:39:58;;;;;;;6.00;2.40;;;27.70;98.40;;;26.89;60.87;100305.34;5006291;28;20234;-54
2021/07/07 04:42:24;;;;;;;7.32;1.92;;;28.60;96.30;;;27.42;59.23;100312.38;5007233;28;20352;-55
2021/07/07 04:44:50;;;;;;;3.83;2.05;;;29.40;94.40;;;28.07;57.24;100296.88;5006007;28;20147;-54
2021/07/07 04:47:16;;;;;;;4.63;2.00;;;30.40;91.20;;;28.25;56.32;100307.13;5005575;28;20457;-55
2021/07/07 04:49:42;;;;;;;4.45;1.90;;;30.90;87.90;;;28.77;54.78;100298.06;5005721;28;20042;-58
2021/07/07 04:52:07;;;;;;;4.43;2.55;;;31.20;84.80;;;28.86;54.05;100304.50;5006575;28;20095;-52
2021/07/07 04:54:33;;;;;;;6.65;2.08;;;31.30;80.60;;;28.55;53.95;100314.41;5005034;28;20080;-54
2021/07/07 04:56:59;;;;;;;4.25;1.70;;;31.10;79.70;;;27.72;56.51;100308.28;5007148;28;20042;-55
2021/07/07 04:59:26;;;;;;;3.75;1.85;;;30.40;80.40;;;27.76;55.70;100306.69;5004308;28;20478;-52
2021/07/07 05:01:52;;;;;;;4.07;1.55;;;30.10;80.60;;;28.44;53.97;100310.09;5003885;28;20038;-52
2021/07/07 05:04:17;;;;;;;4.00;1.70;;;30.50;80.00;;;29.35;51.36;100307.38;5006905;28;20034;-52
2021/07/07 05:06:44;;;;;;;2.25;1.73;;;31.30;78.40;;;29.53;51.27;100303.34;5004772;28;20867;-56
2021/07/07 05:09:10;;;;;;;3.33;2.28;;;32.00;75.10;;;29.21;51.40;100311.72;5006032;28;20116;-56
2021/07/07 05:11:37;;;;;;;5.38;1.42;;;32.30;73.00;;;30.06;49.92;100306.34;5006193;28;20053;-53
2021/07/07 05:14:03;;;;;;;2.22;1.52;;;32.60;71.20;;;29.27;51.12;100313.31;5005160;28;20652;-55
2021/07/07 05:16:29;;;;;;;3.88;1.45;;;32.30;70.20;;;29.52;50.26;100306.28;5004698;28;20502;-54
2021/07/07 05:18:55;;;;;;;1.60;1.50;;;32.50;68.80;;;29.44;50.45;100313.03;5007397;28;20022;-57
2021/07/07 05:21:21;;;;;;;2.72;1.30;;;32.50;68.10;;;29.78;49.50;100309.66;5007523;28;20125;-56
2021/07/07 05:23:47;;;;;;;3.85;1.50;;;32.60;68.30;;;29.67;49.88;100303.56;5004759;28;20032;-59
2021/07/07 05:26:13;;;;;;;3.03;1.42;;;32.50;67.70;;;29.58;50.19;100316.75;5005696;28;20450;-58
2021/07/07 05:28:39;;;;;;;4.20;1.15;;;32.30;68.90;;;29.48;50.36;100316.78;5004826;28;20038;-58
2021/07/07 05:31:06;;;;;;;3.50;1.50;;;32.30;68.10;;;29.17;51.37;100318.69;5005610;28;20026;-59
2021/07/07 05:33:34;;;;;;;3.55;1.20;;;31.70;69.60;;;29.53;50.61;100321.31;5005828;28;20509;-56
2021/07/07 05:36:06;;;;;;;6.30;1.63;;;31.90;70.30;;;30.45;47.69;100313.63;5004935;28;20245;-58
2021/07/07 05:38:32;;;;;;;5.97;1.15;;;33.20;66.90;;;30.60;47.21;100317.03;5000524;28;20045;-55
2021/07/07 05:40:59;;;;;;;3.28;1.58;;;33.90;63.80;;;31.23;46.72;100317.00;4987860;28;20188;-56
2021/07/07 05:43:26;;;;;;;5.38;1.42;;;34.30;62.90;;;30.49;48.01;100322.75;4995307;28;20371;-56
2021/07/07 05:45:52;;;;;;;3.40;1.27;;;34.10;62.90;;;30.51;47.82;100318.69;5006659;28;20041;-56
2021/07/07 05:48:18;;;;;;;2.65;0.80;;;34.00;62.60;;;30.57;47.33;100320.28;5008267;28;20045;-57
2021/07/07 05:50:44;;;;;;;2.63;0.93;;;33.70;62.90;;;31.14;45.44;100315.25;5009073;28;20038;-57
2021/07/07 05:53:11;;;;;;;5.38;0.80;;;34.40;61.00;;;30.37;47.15;100317.69;5010470;28;20069;-55
2021/07/07 05:55:37;;;;;;;4.88;1.17;;;34.00;61.00;;;29.84;49.29;100322.81;5009009;28;20100;-56
2021/07/07 05:58:04;;;;;;;2.15;0.85;;;33.40;62.70;;;30.35;47.45;100328.72;5009057;28;20044;-53
2021/07/07 06:00:30;;;;;;;5.05;0.90;;;33.50;61.90;;;30.58;47.32;100334.53;5011196;28;20030;-55
2021/07/07 06:02:57;;;;;;;1.45;0.90;;;33.50;62.00;;;31.01;46.43;100324.75;5019805;28;20047;-56
2021/07/07 06:05:24;;;;;;;2.88;0.88;;;33.60;62.60;;;31.03;46.39;100330.66;5011479;28;20073;-54
2021/07/07 06:07:51;;;;;;;2.47;0.70;;;34.00;61.50;;;31.32;46.02;100328.78;5008736;28;20030;-58
2021/07/07 06:10:22;;;;;;;1.48;0.70;;;34.60;60.60;;;31.98;44.66;100322.63;5010877;28;20030;-58
2021/07/07 06:12:48;;;;;;;3.08;0.73;;;35.30;59.10;;;31.75;44.84;100345.00;5008925;28;20100;-56
2021/07/07 06:15:15;;;;;;;2.45;0.73;;;35.40;57.90;;;31.60;44.48;100334.41;5008611;28;20041;-56
2021/07/07 06:17:43;;;;;;;4.22;1.00;;;35.00;58.60;;;31.24;44.87;100331.28;5005874;28;20124;-57
2021/07/07 06:20:12;;;;;;;2.05;0.82;;;34.70;58.30;;;32.07;43.21;100333.56;5009644;28;20427;-55
2021/07/07 06:22:40;;;;;;;3.58;0.80;;;35.50;57.20;;;31.98;43.86;100340.69;5008171;28;20148;-54
2021/07/07 06:25:07;;;;;;;3.90;0.75;;;35.70;56.70;;;31.50;45.48;100342.59;5009801;28;20030;-57
2021/07/07 06:27:36;;;;;;;4.22;0.77;;;35.20;57.60;;;31.63;44.59;100337.31;5010006;28;20520;-56
2021/07/07 06:30:05;;;;;;;4.25;0.68;;;35.10;57.60;;;31.85;44.26;100336.00;4991908;28;20046;-58
2021/07/07 06:32:31;;;;;;;2.25;0.70;;;35.50;57.40;;;32.35;43.83;100345.31;5008812;28;20049;-61
2021/07/07 06:35:00;;;;;;;2.15;0.50;;;35.90;56.90;;;32.55;43.12;100342.31;5009351;28;20050;-62
2021/07/07 06:37:27;;;;;;;2.45;0.95;;;36.00;56.90;;;33.07;42.23;100345.81;5007668;28;20045;-59
2021/07/07 06:39:54;;;;;;;3.97;0.70;;;36.70;55.70;;;32.84;42.74;100344.03;5008778;28;20068;-61
2021/07/07 06:42:20;;;;;;;2.47;0.70;;;36.60;55.60;;;33.61;41.03;100345.06;5007572;28;20069;-63
2021/07/07 06:44:45;;;;;;;2.78;0.60;;;37.40;54.10;;;34.12;39.87;100345.91;5009567;28;20026;-62
2021/07/07 06:47:11;;;;;;;1.67;0.73;;;37.90;53.10;;;33.47;40.86;100351.59;5009973;28;20121;-60
2021/07/07 06:49:38;;;;;;;1.10;0.60;;;37.60;53.20;;;33.41;41.34;100360.88;5008508;28;20037;-61
2021/07/07 06:52:05;;;;;;;2.25;0.80;;;37.60;52.50;;;33.44;40.97;100360.28;5008760;28;20034;-62
2021/07/07 06:54:31;;;;;;;1.17;0.90;;;37.20;52.90;;;32.84;42.49;100365.63;5009551;28;20493;-59
2021/07/07 06:56:57;;;;;;;1.85;0.47;;;36.80;53.80;;;33.61;40.67;100357.75;5009220;28;20089;-56
2021/07/07 06:59:23;;;;;;;1.83;0.60;;;37.60;52.40;;;33.40;40.36;100364.66;5009387;28;20034;-59
2021/07/07 07:01:49;;;;;;;4.97;0.80;;;37.30;52.40;;;33.58;40.36;100366.47;5009796;28;20034;-62
2021/07/07 07:04:15;;;;;;;1.67;0.70;;;37.30;52.40;;;33.14;40.50;100365.09;4991762;28;20038;-55
2021/07/07 07:06:41;;;;;;;3.00;0.82;;;37.20;52.00;;;32.93;40.69;100371.94;5009426;28;20552;-53
2021/07/07 07:09:07;;;;;;;3.70;0.80;;;36.90;52.00;;;33.06;40.51;100371.19;5007684;28;20148;-60
2021/07/07 07:11:33;;;;;;;2.25;1.05;;;36.80;52.40;;;33.37;39.56;100370.66;5009121;28;20437;-59
2021/07/07 07:13:59;;;;;;;4.53;0.52;;;37.20;51.90;;;33.70;39.04;100368.66;5009186;28;20084;-60
2021/07/07 07:16:25;;;;;;;1.50;0.60;;;37.30;51.70;;;32.33;41.21;100369.88;5007896;28;20034;-61
2021/07/07 07:18:51;;;;;;;1.38;0.70;;;35.70;54.00;;;31.32;43.53;100379.91;5003730;28;20124;-60
2021/07/07 07:21:17;;;;;;;4.13;0.60;;;33.10;58.90;;;30.51;45.93;100385.09;5007696;28;20033;-62
2021/07/07 07:23:43;;;;;;;2.35;0.60;;;31.80;62.40;;;29.83;47.43;100376.78;5008131;28;20049;-62
2021/07/07 07:26:09;;;;;;;3.35;0.68;;;30.80;64.90;;;29.86;47.51;100373.56;5009049;28;20130;-61
2021/07/07 07:28:35;;;;;;;3.88;0.80;;;30.40;66.60;;;29.60;48.47;100373.66;5007731;28;20561;-61
2021/07/07 07:31:02;;;;;;;3.15;0.73;;;30.20;67.50;;;29.76;47.45;100369.03;5009178;28;20038;-47
2021/07/07 07:33:28;;;;;;;1.85;0.77;;;30.30;67.30;;;29.79;47.72;100375.72;5009399;28;20053;-56
2021/07/07 07:35:55;;;;;;;1.17;0.60;;;30.30;67.30;;;30.06;47.27;100376.19;5009019;28;20485;-59
2021/07/07 07:38:39;;;;;;;1.88;0.82;;;30.30;67.60;;;30.22;46.58;100374.25;5008880;28;20091;-56
2021/07/07 07:41:05;;;;;;;2.57;0.80;;;30.50;67.60;;;29.96;47.99;100379.69;5007415;28;20520;-59
2021/07/07 07:43:31;;;;;;;1.50;1.00;;;30.40;68.50;;;29.78;48.54;100380.28;5007049;28;20870;-57
2021/07/07 07:45:59;;;;;;;2.50;0.77;;;30.40;68.80;;;29.95;48.13;100383.47;5008802;28;20439;-56
2021/07/07 07:48:26;;;;;;;2.83;0.50;;;30.30;69.00;;;29.83;48.51;100391.00;5008536;28;20126;-61
2021/07/07 07:50:54;;;;;;;1.85;0.80;;;30.30;69.40;;;30.39;47.16;100385.41;5008523;28;20041;-56
2021/07/07 07:53:21;;;;;;;1.63;0.65;;;30.60;69.30;;;30.71;45.57;100376.13;5008364;28;20034;-57
2021/07/07 07:55:47;;;;;;;1.55;0.60;;;30.90;67.40;;;31.05;44.76;100385.00;5008609;28;20136;-60
2021/07/07 07:58:18;;;;;;;1.80;0.70;;;31.20;67.30;;;31.27;43.90;100379.16;5008637;28;20049;-56
2021/07/07 08:00:48;;;;;;;2.35;0.57;;;31.50;66.30;;;31.29;44.14;100380.47;4991083;28;20059;-61
2021/07/07 08:03:15;;;;;;;42.60;3.53;;;31.60;66.20;;;31.54;43.92;100382.13;5008360;28;20104;-46
2021/07/07 08:05:42;;;;;;;3.17;0.65;;;31.80;65.50;;;31.83;43.24;100381.28;5006911;28;20480;-48
2021/07/07 08:08:10;;;;;;;4.47;0.90;;;32.10;65.40;;;31.78;43.23;100381.34;5008133;28;20034;-46
2021/07/07 08:10:37;;;;;;;2.65;0.68;;;32.20;64.30;;;31.54;43.63;100384.00;5008201;28;20053;-47
2021/07/07 08:13:04;;;;;;;3.53;0.60;;;32.00;64.90;;;31.77;42.00;100383.22;5008167;28;20026;-52
2021/07/07 08:15:30;;;;;;;3.33;0.73;;;32.20;63.40;;;32.08;41.69;100385.56;5008214;28;20042;-48
2021/07/07 08:17:57;;;;;;;3.60;0.50;;;32.40;63.20;;;32.29;39.92;100386.91;5008470;28;20026;-48
2021/07/07 08:20:24;;;;;;;1.33;0.40;;;32.60;61.70;;;32.10;39.81;100378.81;5007365;28;20042;-46
2021/07/07 08:22:51;;;;;;;3.42;0.30;;;32.60;60.80;;;32.38;39.41;100376.28;5008684;28;20053;-47
2021/07/07 08:25:19;;;;;;;3.67;0.50;;;32.60;60.90;;;32.69;38.12;100379.31;5008287;28;20040;-47
2021/07/07 08:27:46;;;;;;;3.72;0.50;;;32.90;59.50;;;32.86;37.73;100388.50;5007859;28;20044;-47
2021/07/07 08:30:13;;;;;;;0.63;0.47;;;33.10;58.60;;;32.81;36.95;100388.59;5006693;28;20050;-46
2021/07/07 08:32:40;;;;;;;2.35;0.85;;;33.20;57.70;;;33.01;37.08;100383.97;5008326;28;20153;-48
2021/07/07 08:35:08;;;;;;;3.30;0.50;;;33.30;57.50;;;33.07;36.07;100382.78;5008023;28;20045;-46
2021/07/07 08:37:34;;;;;;;3.72;1.70;;;33.40;56.60;;;33.03;36.38;100390.69;5008162;28;20315;-47
2021/07/07 08:40:01;;;;;;;1.95;0.40;;;33.40;56.90;;;33.09;35.34;100392.16;5007956;28;20111;-49
2021/07/07 08:42:33;;;;;;;4.78;1.08;;;33.50;55.40;;;33.33;35.79;100391.25;5007632;28;20192;-47
2021/07/07 08:45:00;;;;;;;0.70;0.40;;;33.60;56.10;;;33.30;35.40;100393.47;5006277;28;20046;-46
2021/07/07 08:47:26;;;;;;;3.10;0.50;;;33.60;55.80;;;33.53;34.39;100388.19;5006084;28;20035;-46
2021/07/07 08:49:52;;;;;;;2.25;0.55;;;33.70;54.90;;;33.41;34.35;100393.28;5007709;28;20385;-47
2021/07/07 08:52:18;;;;;;;0.90;0.40;;;33.80;54.20;;;33.06;34.06;100398.19;5006080;28;20056;-46
2021/07/07 08:54:47;;;;;;;1.45;0.52;;;33.60;53.80;;;33.11;34.27;100394.56;5007552;28;20045;-49
2021/07/07 08:57:13;;;;;;;2.85;0.63;;;33.50;53.90;;;33.18;34.53;100397.69;5007610;28;20117;-42
2021/07/07 08:59:39;;;;;;;1.55;0.30;;;33.50;54.40;;;33.26;34.72;100397.81;5007547;28;20030;-43
2021/07/07 09:02:11;;;;;;;1.05;0.50;;;33.60;54.00;;;33.54;34.74;100406.00;5007518;28;20168;-60
2021/07/07 09:04:40;;;;;;;2.05;0.52;;;33.70;54.90;;;33.83;34.13;100401.13;5007340;28;20096;-62
2021/07/07 09:07:21;;;;;;;2.92;0.60;;;34.00;54.40;;;34.03;34.24;100412.63;5007476;28;20513;-59
2021/07/07 09:09:53;;;;;;;0.70;0.47;;;34.20;54.70;;;33.65;34.14;100410.09;5005851;28;20572;-55
2021/07/07 09:12:22;;;;;;;1.08;0.40;;;34.00;53.90;;;33.76;34.62;100408.78;5007473;28;20127;-60
2021/07/07 09:15:00;;;;;;;3.15;0.50;;;34.00;54.40;;;33.86;34.08;100408.63;4990223;28;20445;-60
2021/07/07 09:17:26;;;;;;;0.98;0.52;;;34.20;54.20;;;33.98;33.90;100421.66;5007707;28;20030;-57
2021/07/07 09:19:52;;;;;;;1.90;0.40;;;34.30;54.00;;;33.97;33.96;100416.53;5006804;28;20463;-57
2021/07/07 09:22:24;;;;;;;3.65;0.43;;;34.20;53.80;;;34.22;33.16;100427.59;5011452;28;20109;-59
2021/07/07 09:25:03;;;;;;;4.50;0.80;;;34.40;53.50;;;34.25;33.41;100421.59;5011234;28;20532;-60
2021/07/07 09:27:36;;;;;;;1.08;0.47;;;34.50;53.80;;;34.50;33.41;100427.59;5011584;28;20220;-58
2021/07/07 09:30:10;;;;;;;1.52;0.50;;;34.70;53.70;;;34.55;34.45;100433.66;5009705;28;20501;-57
2021/07/07 09:32:50;;;;;;;2.05;0.70;;;34.70;54.50;;;34.46;34.89;100438.22;5011287;28;20046;-59
2021/07/07 09:35:21;;;;;;;1.00;0.70;;;34.80;54.70;;;34.14;35.65;100432.91;5011569;28;20072;-58
2021/07/07 09:37:56;;;;;;;1.52;0.55;;;34.50;55.40;;;34.29;35.13;100433.41;5011297;28;20400;-59
2021/07/07 09:40:24;;;;;;;1.25;0.50;;;34.50;55.50;;;34.48;35.44;100436.00;4993825;28;20145;-58
2021/07/07 09:42:50;;;;;;;2.25;0.60;;;34.60;55.90;;;34.51;35.07;100432.66;5010747;28;20057;-61
2021/07/07 09:45:21;;;;;;;1.05;0.60;;;34.70;55.60;;;34.52;35.24;100431.56;5010917;28;20042;-56
2021/07/07 09:47:48;;;;;;;2.60;0.70;;;34.70;55.40;;;34.06;35.05;100434.44;4993593;28;20037;-55
2021/07/07 09:50:17;;;;;;;0.80;0.50;;;34.50;54.60;;;33.94;35.01;100432.25;5011339;28;20077;-53
2021/07/07 09:52:43;;;;;;;1.15;0.52;;;34.30;54.70;;;34.26;35.01;100431.31;5011140;28;20038;-56
2021/07/07 09:55:11;;;;;;;1.50;0.60;;;34.40;55.00;;;34.45;34.71;100438.53;5010632;28;20041;-58
2021/07/07 09:57:46;;;;;;;2.45;0.50;;;34.50;55.00;;;34.61;33.72;100429.75;5010692;28;20369;-56
2021/07/07 10:00:22;;;;;;;1.50;0.50;;;34.80;54.10;;;34.71;33.52;100436.84;5009011;28;20549;-56
2021/07/07 10:02:52;;;;;;;1.02;0.50;;;34.90;54.00;;;34.77;33.78;100434.81;5006513;28;20064;-53
2021/07/07 10:05:20;;;;;;;1.65;0.50;;;35.00;54.00;;;34.68;33.74;100428.53;5008203;28;20136;-56
2021/07/07 10:07:48;;;;;;;1.02;0.50;;;34.90;53.50;;;34.80;33.74;100432.31;5010595;28;20611;-56
2021/07/07 10:10:16;;;;;;;0.77;0.40;;;35.00;53.80;;;34.94;33.01;100429.56;5010273;28;20132;-58
2021/07/07 10:12:45;;;;;;;2.53;0.50;;;35.10;52.90;;;34.81;32.94;100435.81;5010255;28;20091;-59
2021/07/07 10:15:16;;;;;;;4.07;0.60;;;35.00;52.60;;;34.80;32.90;100429.63;5010253;28;20025;-58